createdAt,value
2023-05-11T00:02:11.984Z,14.06
2023-05-11T00:04:41.133Z,13.93
2023-05-11T00:07:09.133Z,13.94
2023-05-11T00:09:36.446Z,13.96
2023-05-11T00:12:04.552Z,13.99
2023-05-11T00:14:32.034Z,13.81
2023-05-11T00:16:59.866Z,13.72
2023-05-11T00:19:27.158Z,13.74
2023-05-11T00:21:56.303Z,13.85
2023-05-11T00:24:23.704Z,13.72
2023-05-11T00:26:51.678Z,13.53
2023-05-11T00:29:18.973Z,13.58
2023-05-11T00:31:46.896Z,13.55
2023-05-11T00:34:14.554Z,13.66
2023-05-11T00:36:42.243Z,13.68
2023-05-11T00:39:11.479Z,13.54
2023-05-11T00:41:39.460Z,13.61
2023-05-11T00:44:06.938Z,13.66
2023-05-11T00:46:34.846Z,13.87
2023-05-11T00:49:02.336Z,13.87
2023-05-11T00:51:32.072Z,13.90
2023-05-11T00:53:59.541Z,13.75
2023-05-11T00:56:28.752Z,13.71
2023-05-11T00:58:56.324Z,13.64
2023-05-11T01:01:24.150Z,13.74
2023-05-11T01:03:51.850Z,13.71
2023-05-11T01:06:29.519Z,13.66
2023-05-11T01:09:02.727Z,13.51
2023-05-11T01:11:40.824Z,13.34
2023-05-11T01:14:15.408Z,13.09
2023-05-11T01:16:46.327Z,13.00
2023-05-11T01:19:24.389Z,13.17
2023-05-11T01:21:52.322Z,13.17
2023-05-11T01:24:38.172Z,13.30
2023-05-11T01:27:32.009Z,13.19
2023-05-11T01:30:33.798Z,13.22
2023-05-11T01:33:09.008Z,13.21
2023-05-11T01:35:41.455Z,13.19
2023-05-11T01:38:13.318Z,13.13
2023-05-11T01:40:43.069Z,13.00
2023-05-11T01:43:14.257Z,12.93
2023-05-11T01:45:49.188Z,12.82
2023-05-11T01:48:23.144Z,13.01
2023-05-11T01:50:51.386Z,13.05
2023-05-11T01:53:20.273Z,13.05
2023-05-11T01:55:50.416Z,13.02
2023-05-11T01:58:19.751Z,13.09
2023-05-11T02:00:48.893Z,13.23
2023-05-11T02:03:19.000Z,13.24
2023-05-11T02:05:49.145Z,13.19
2023-05-11T02:08:18.593Z,13.11
2023-05-11T02:10:47.249Z,13.06
2023-05-11T02:13:17.722Z,12.83
2023-05-11T02:15:46.530Z,12.74
2023-05-11T02:18:17.196Z,12.72
2023-05-11T02:20:46.895Z,12.66
2023-05-11T02:23:16.657Z,12.77
2023-05-11T02:25:44.706Z,12.80
2023-05-11T02:28:12.588Z,12.83
2023-05-11T02:30:44.906Z,12.76
2023-05-11T02:33:19.549Z,12.85
2023-05-11T02:35:47.627Z,12.99
2023-05-11T02:38:17.820Z,12.99
2023-05-11T02:40:49.242Z,13.01
2023-05-11T02:43:23.722Z,13.18
2023-05-11T02:45:54.517Z,13.08
2023-05-11T02:48:27.622Z,12.66
2023-05-11T02:50:57.168Z,12.34
2023-05-11T02:53:28.258Z,12.40
2023-05-11T02:55:56.340Z,12.55
2023-05-11T02:58:24.142Z,12.46
2023-05-11T03:00:51.878Z,12.50
2023-05-11T03:03:19.955Z,12.54
2023-05-11T03:05:48.985Z,12.58
2023-05-11T03:08:17.017Z,12.63
2023-05-11T03:10:45.421Z,12.70
2023-05-11T03:13:13.770Z,12.71
2023-05-11T03:15:42.052Z,12.72
2023-05-11T03:18:11.663Z,12.46
2023-05-11T03:20:43.168Z,12.30
2023-05-11T03:23:13.246Z,12.29
2023-05-11T03:25:42.125Z,12.30
2023-05-11T03:28:11.256Z,12.48
2023-05-11T03:30:40.643Z,12.48
2023-05-11T03:33:08.670Z,12.47
2023-05-11T03:35:37.258Z,12.44
2023-05-11T03:38:06.151Z,12.49
2023-05-11T03:40:37.695Z,12.28
2023-05-11T03:43:08.553Z,12.12
2023-05-11T03:45:37.744Z,11.94
2023-05-11T03:48:07.374Z,11.95
2023-05-11T03:50:35.186Z,12.10
2023-05-11T03:53:04.371Z,11.92
2023-05-11T03:55:32.389Z,11.68
2023-05-11T03:58:04.206Z,11.67
2023-05-11T04:00:31.979Z,11.90
2023-05-11T04:03:04.789Z,11.81
2023-05-11T04:05:32.695Z,11.78
2023-05-11T04:08:01.345Z,11.75
2023-05-11T04:10:28.784Z,11.64
2023-05-11T04:12:56.859Z,11.49
2023-05-11T04:15:25.896Z,11.39
2023-05-11T04:17:53.958Z,11.46
2023-05-11T04:20:21.461Z,11.68
2023-05-11T04:22:49.335Z,11.58
2023-05-11T04:25:17.032Z,11.57
2023-05-11T04:27:45.016Z,11.37
2023-05-11T04:30:12.953Z,11.62
2023-05-11T04:32:42.808Z,11.95
2023-05-11T04:35:10.590Z,12.09
2023-05-11T04:37:38.471Z,12.04
2023-05-11T04:40:07.368Z,12.00
2023-05-11T04:42:35.258Z,12.14
2023-05-11T04:45:02.785Z,12.05
2023-05-11T04:47:30.631Z,11.98
2023-05-11T04:49:59.930Z,12.03
2023-05-11T04:52:27.904Z,12.12
2023-05-11T04:54:55.329Z,12.02
2023-05-11T04:57:23.077Z,12.16
2023-05-11T04:59:50.615Z,12.45
2023-05-11T05:02:18.920Z,12.36
2023-05-11T05:04:46.437Z,12.43
2023-05-11T05:07:16.020Z,12.29
2023-05-11T05:09:45.190Z,12.34
2023-05-11T05:12:13.409Z,12.36
2023-05-11T05:14:40.865Z,12.30
2023-05-11T05:17:08.752Z,12.34
2023-05-11T05:19:36.125Z,12.59
2023-05-11T05:22:03.942Z,12.82
2023-05-11T05:24:33.457Z,12.88
2023-05-11T05:27:01.272Z,12.77
2023-05-11T05:29:28.867Z,12.71
2023-05-11T05:31:56.944Z,12.77
2023-05-11T05:34:24.379Z,12.75
2023-05-11T05:36:52.301Z,12.85
2023-05-11T05:39:20.395Z,12.78
2023-05-11T05:41:49.762Z,12.96
2023-05-11T05:44:17.265Z,13.16
2023-05-11T05:46:45.454Z,13.14
2023-05-11T05:49:13.021Z,13.11
2023-05-11T05:51:41.108Z,13.32
2023-05-11T05:54:08.473Z,13.65
2023-05-11T05:56:36.458Z,13.79
2023-05-11T05:59:05.775Z,13.88
2023-05-11T06:01:33.756Z,13.86
2023-05-11T06:04:01.290Z,14.11
2023-05-11T06:06:29.232Z,14.54
2023-05-11T06:08:56.751Z,14.63
2023-05-11T06:11:24.457Z,14.89
2023-05-11T06:13:51.808Z,15.00
2023-05-11T06:16:21.150Z,15.05
2023-05-11T06:18:48.662Z,15.16
2023-05-11T06:21:16.353Z,15.35
2023-05-11T06:23:43.692Z,15.64
2023-05-11T06:26:11.430Z,15.94
2023-05-11T06:28:39.073Z,16.00
2023-05-11T06:31:06.862Z,16.09
2023-05-11T06:33:35.616Z,16.29
2023-05-11T06:36:07.081Z,16.20
2023-05-11T06:38:34.533Z,16.38
2023-05-11T06:41:02.301Z,16.69
2023-05-11T06:43:29.698Z,16.78
2023-05-11T06:45:57.467Z,17.03
2023-05-11T06:48:24.922Z,17.11
2023-05-11T06:50:54.262Z,17.44
2023-05-11T06:53:21.870Z,17.25
2023-05-11T06:55:49.746Z,17.11
2023-05-11T06:58:17.140Z,17.43
2023-05-11T07:00:44.980Z,17.79
2023-05-11T07:03:12.393Z,17.75
2023-05-11T07:05:40.499Z,17.98
2023-05-11T07:08:09.650Z,17.94
2023-05-11T07:10:37.469Z,18.07
2023-05-11T07:13:04.831Z,18.19
2023-05-11T07:15:32.670Z,18.20
2023-05-11T07:18:00.216Z,18.47
2023-05-11T07:20:28.018Z,18.51
2023-05-11T07:22:57.383Z,18.48
2023-05-11T07:25:26.659Z,18.74
2023-05-11T07:27:53.983Z,18.56
2023-05-11T07:30:21.974Z,18.08
2023-05-11T07:32:49.539Z,18.23
2023-05-11T07:35:17.307Z,18.30
2023-05-11T07:37:44.771Z,18.57
2023-05-11T07:40:12.684Z,18.58
2023-05-11T07:42:41.408Z,18.71
2023-05-11T07:45:09.907Z,18.75
2023-05-11T07:47:37.740Z,18.59
2023-05-11T07:50:07.008Z,18.53
2023-05-11T07:52:34.415Z,18.45
2023-05-11T07:55:02.648Z,18.45
2023-05-11T07:57:30.163Z,18.57
2023-05-11T07:59:59.460Z,18.68
2023-05-11T08:02:27.170Z,18.31
2023-05-11T08:04:55.050Z,18.38
2023-05-11T08:07:22.892Z,18.92
2023-05-11T08:09:50.585Z,19.16
2023-05-11T08:12:18.623Z,19.07
2023-05-11T08:14:46.050Z,19.19
2023-05-11T08:17:15.273Z,19.16
2023-05-11T08:19:42.845Z,19.35
2023-05-11T08:22:10.736Z,19.29
2023-05-11T08:24:38.337Z,19.42
2023-05-11T08:27:06.389Z,19.58
2023-05-11T08:29:34.000Z,19.80
2023-05-11T08:32:01.764Z,19.75
2023-05-11T08:34:30.956Z,19.83
2023-05-11T08:36:58.892Z,19.86
2023-05-11T08:39:43.611Z,20.05
2023-05-11T08:42:16.566Z,20.18
2023-05-11T08:44:45.011Z,20.42
2023-05-11T08:49:45.448Z,20.11
2023-05-11T08:52:15.217Z,19.73
2023-05-11T08:54:42.672Z,19.88
2023-05-11T08:57:13.537Z,20.51
2023-05-11T08:59:44.245Z,20.36
2023-05-11T09:02:16.740Z,20.29
2023-05-11T09:04:48.911Z,20.48
2023-05-11T09:07:17.598Z,20.28
2023-05-11T09:09:46.162Z,20.51
2023-05-11T09:12:14.199Z,20.83
2023-05-11T09:14:41.857Z,20.82
2023-05-11T09:17:09.869Z,20.78
2023-05-11T09:19:37.379Z,21.42
2023-05-11T09:22:07.041Z,21.27
2023-05-11T09:24:34.378Z,21.14
2023-05-11T09:27:08.555Z,21.14
2023-05-11T09:29:35.994Z,21.29
2023-05-11T09:32:04.645Z,22.01
2023-05-11T09:34:32.038Z,22.19
2023-05-11T09:36:59.834Z,21.99
2023-05-11T09:42:14.573Z,21.66
2023-05-11T09:44:42.199Z,21.61
2023-05-11T09:47:14.347Z,22.01
2023-05-11T09:49:42.295Z,21.82
2023-05-11T09:52:11.204Z,21.86
2023-05-11T09:54:44.561Z,21.92
2023-05-11T09:57:26.129Z,21.42
2023-05-11T09:59:54.259Z,21.58
2023-05-11T10:02:23.233Z,21.97
2023-05-11T10:04:52.438Z,22.08
2023-05-11T10:07:28.963Z,22.37
2023-05-11T10:09:59.105Z,21.80
2023-05-11T10:12:28.267Z,21.27
2023-05-11T10:14:58.694Z,20.57
2023-05-11T10:17:27.220Z,21.24
2023-05-11T10:19:55.781Z,21.78
2023-05-11T10:22:25.416Z,21.80
2023-05-11T10:24:53.662Z,22.18
2023-05-11T10:27:23.096Z,22.46
2023-05-11T10:29:50.645Z,21.94
2023-05-11T10:32:20.172Z,21.20
2023-05-11T10:34:48.552Z,20.91
2023-05-11T10:37:16.700Z,21.30
2023-05-11T10:39:47.742Z,21.88
2023-05-11T10:42:35.963Z,21.77
2023-05-11T10:45:21.606Z,20.92
2023-05-11T10:48:37.208Z,20.27
2023-05-11T10:51:33.534Z,20.30
2023-05-11T10:54:12.990Z,20.24
2023-05-11T10:56:58.117Z,20.53
2023-05-11T10:59:46.101Z,20.65
2023-05-11T11:02:13.780Z,20.55
2023-05-11T11:04:46.047Z,20.54
2023-05-11T11:07:13.316Z,20.72
2023-05-11T11:09:52.080Z,20.92
2023-05-11T11:12:21.213Z,21.00
2023-05-11T11:14:58.795Z,20.88
2023-05-11T11:17:28.327Z,20.67
2023-05-11T11:19:56.249Z,20.54
2023-05-11T11:22:45.774Z,20.75
2023-05-11T11:25:14.502Z,20.90
2023-05-11T11:27:58.774Z,20.85
2023-05-11T11:30:29.467Z,20.75
2023-05-11T11:33:33.035Z,20.52
2023-05-11T11:36:01.406Z,20.64
2023-05-11T11:38:30.729Z,20.59
2023-05-11T11:40:58.971Z,20.76
2023-05-11T11:43:28.481Z,20.56
2023-05-11T11:45:59.816Z,20.32
2023-05-11T11:48:31.436Z,20.08
2023-05-11T11:51:04.983Z,20.08
2023-05-11T11:54:05.826Z,20.40
2023-05-11T11:56:43.476Z,20.76
2023-05-11T11:59:17.007Z,21.45
2023-05-11T12:01:51.536Z,21.78
2023-05-11T12:04:51.915Z,22.12
2023-05-11T12:07:20.965Z,21.80
2023-05-11T12:09:48.602Z,21.54
2023-05-11T12:12:18.179Z,21.09
2023-05-11T12:14:47.916Z,20.99
2023-05-11T12:17:24.451Z,21.06
2023-05-11T12:19:51.759Z,20.83
2023-05-11T12:22:23.238Z,21.08
2023-05-11T12:24:50.864Z,21.17
2023-05-11T12:27:18.551Z,21.33
2023-05-11T12:29:49.433Z,20.90
2023-05-11T12:32:27.397Z,20.79
2023-05-11T12:34:58.621Z,20.75
2023-05-11T12:37:29.626Z,20.51
2023-05-11T12:39:58.042Z,20.30
2023-05-11T12:42:26.252Z,20.34
2023-05-11T12:44:55.072Z,20.26
2023-05-11T12:47:23.072Z,20.21
2023-05-11T12:49:52.152Z,20.47
2023-05-11T12:52:23.154Z,20.70
2023-05-11T12:54:51.263Z,20.76
2023-05-11T12:57:26.551Z,20.69
2023-05-11T13:00:08.386Z,20.84
2023-05-11T13:02:43.425Z,20.89
2023-05-11T13:05:14.219Z,20.59
2023-05-11T13:07:42.329Z,20.57
2023-05-11T13:10:11.722Z,21.02
2023-05-11T13:12:48.934Z,21.57
2023-05-11T13:15:16.428Z,21.73
2023-05-11T13:17:44.702Z,22.00
2023-05-11T13:20:20.914Z,22.50
2023-05-11T13:22:49.795Z,22.25
2023-05-11T13:25:21.113Z,22.36
2023-05-11T13:27:49.417Z,22.74
2023-05-11T13:30:16.900Z,22.45
2023-05-11T13:32:44.975Z,22.57
2023-05-11T13:35:12.813Z,22.70
2023-05-11T13:37:42.280Z,22.74
2023-05-11T13:40:10.793Z,22.81
2023-05-11T13:42:38.783Z,23.04
2023-05-11T13:45:07.568Z,23.09
2023-05-11T13:47:35.419Z,23.15
2023-05-11T13:50:03.029Z,22.76
2023-05-11T13:52:30.787Z,22.37
2023-05-11T13:54:59.798Z,22.38
2023-05-11T13:57:27.734Z,22.24
2023-05-11T13:59:55.066Z,22.32
2023-05-11T14:02:22.791Z,22.25
2023-05-11T14:04:50.126Z,22.33
2023-05-11T14:07:48.983Z,22.74
2023-05-11T14:14:35.735Z,22.04
2023-05-11T14:17:36.898Z,21.79
2023-05-11T14:20:14.703Z,21.43
2023-05-11T14:22:48.792Z,20.91
2023-05-11T14:25:20.050Z,20.74
2023-05-11T14:28:20.567Z,20.80
2023-05-11T14:31:02.839Z,21.07
2023-05-11T14:33:36.523Z,21.08
2023-05-11T14:36:04.876Z,21.02
2023-05-11T14:38:32.170Z,21.72
2023-05-11T14:41:00.036Z,22.01
2023-05-11T14:43:27.577Z,21.50
2023-05-11T14:45:55.448Z,21.08
2023-05-11T14:48:24.379Z,21.05
2023-05-11T14:50:52.272Z,20.98
2023-05-11T14:53:19.852Z,20.87
2023-05-11T14:55:47.708Z,20.80
2023-05-11T14:58:15.058Z,20.67
2023-05-11T15:00:43.056Z,20.90
2023-05-11T15:03:10.819Z,21.46
2023-05-11T15:05:40.661Z,21.78
2023-05-11T15:08:18.358Z,22.09
2023-05-11T15:10:54.162Z,22.33
2023-05-11T15:13:22.404Z,22.27
2023-05-11T15:15:50.506Z,22.37
2023-05-11T15:18:18.141Z,22.38
2023-05-11T15:20:47.726Z,22.17
2023-05-11T15:23:15.311Z,21.99
2023-05-11T15:25:43.142Z,22.02
2023-05-11T15:28:10.657Z,21.73
2023-05-11T15:30:38.503Z,21.30
2023-05-11T15:33:06.113Z,21.15
2023-05-11T15:36:04.891Z,20.80
2023-05-11T15:39:08.372Z,20.53
2023-05-11T15:41:38.575Z,20.30
2023-05-11T15:44:13.119Z,20.40
2023-05-11T15:46:41.001Z,20.59
2023-05-11T15:49:08.539Z,20.80
2023-05-11T15:51:36.295Z,20.92
2023-05-11T15:54:05.658Z,20.97
2023-05-11T15:56:33.407Z,21.03
2023-05-11T15:59:00.865Z,21.26
2023-05-11T16:01:28.822Z,21.51
2023-05-11T16:03:56.599Z,21.62
2023-05-11T16:06:24.613Z,21.65
2023-05-11T16:08:52.139Z,21.80
2023-05-11T16:11:21.576Z,21.68
2023-05-11T16:13:48.938Z,21.28
2023-05-11T16:16:17.044Z,21.15
2023-05-11T16:18:44.410Z,20.90
2023-05-11T16:21:12.962Z,20.62
2023-05-11T16:23:40.615Z,20.67
2023-05-11T16:26:08.493Z,20.91
2023-05-11T16:28:37.392Z,21.13
2023-05-11T16:31:05.509Z,21.29
2023-05-11T16:33:32.982Z,21.44
2023-05-11T16:36:00.874Z,21.42
2023-05-11T16:38:28.373Z,21.41
2023-05-11T16:40:56.274Z,21.62
2023-05-11T16:43:23.712Z,21.62
2023-05-11T16:45:53.393Z,21.62
2023-05-11T16:48:20.825Z,21.74
2023-05-11T16:50:48.890Z,21.77
2023-05-11T16:53:16.289Z,21.82
2023-05-11T16:55:44.195Z,21.62
2023-05-11T16:58:11.779Z,21.52
2023-05-11T17:00:40.010Z,20.97
2023-05-11T17:03:08.837Z,20.63
2023-05-11T17:05:36.823Z,20.63
2023-05-11T17:08:04.386Z,20.48
2023-05-11T17:10:32.268Z,20.50
2023-05-11T17:12:59.623Z,20.48
2023-05-11T17:15:27.738Z,20.50
2023-05-11T17:17:55.120Z,20.58
2023-05-11T17:20:24.689Z,20.69
2023-05-11T17:22:52.481Z,20.67
2023-05-11T17:25:22.237Z,20.54
2023-05-11T17:27:49.781Z,20.50
2023-05-11T17:30:17.917Z,20.56
2023-05-11T17:32:45.995Z,20.34
2023-05-11T17:35:14.258Z,20.30
2023-05-11T17:37:43.435Z,20.38
2023-05-11T17:40:12.056Z,20.43
2023-05-11T17:42:39.521Z,20.54
2023-05-11T17:45:08.877Z,20.66
2023-05-11T17:47:36.523Z,20.72
2023-05-11T17:50:04.798Z,20.79
2023-05-11T17:52:32.466Z,20.71
2023-05-11T17:55:01.852Z,20.58
2023-05-11T17:57:29.239Z,20.47
2023-05-11T17:59:57.057Z,20.40
2023-05-11T18:02:24.712Z,20.19
2023-05-11T18:04:52.640Z,20.15
2023-05-11T18:07:20.249Z,20.08
2023-05-11T18:09:48.235Z,20.07
2023-05-11T18:12:17.321Z,20.09
2023-05-11T18:14:45.524Z,20.00
2023-05-11T18:17:12.859Z,19.90
2023-05-11T18:19:40.827Z,19.78
2023-05-11T18:22:08.210Z,19.59
2023-05-11T18:24:35.951Z,19.59
2023-05-11T18:27:03.568Z,19.38
2023-05-11T18:29:32.989Z,19.15
2023-05-11T18:32:00.714Z,19.06
2023-05-11T18:34:29.066Z,19.13
2023-05-11T18:36:56.555Z,19.11
2023-05-11T18:39:24.450Z,19.06
2023-05-11T18:41:51.880Z,18.91
2023-05-11T18:44:19.737Z,18.80
2023-05-11T18:46:48.696Z,18.66
2023-05-11T18:49:16.693Z,18.51
2023-05-11T18:51:44.075Z,18.45
2023-05-11T18:54:11.965Z,18.35
2023-05-11T18:56:39.423Z,18.23
2023-05-11T18:59:07.588Z,18.13
2023-05-11T19:01:46.468Z,17.86
2023-05-11T19:04:16.466Z,17.79
2023-05-11T19:06:44.046Z,17.38
2023-05-11T19:09:12.050Z,17.24
2023-05-11T19:11:39.451Z,17.15
2023-05-11T19:14:07.331Z,17.05
2023-05-11T19:16:34.725Z,16.98
2023-05-11T19:19:02.774Z,17.06
2023-05-11T19:21:31.799Z,17.04
2023-05-11T19:23:59.710Z,17.08
2023-05-11T19:26:27.253Z,17.03
2023-05-11T19:28:55.181Z,16.89
2023-05-11T19:31:23.064Z,16.71
2023-05-11T19:33:51.351Z,16.75
2023-05-11T19:36:19.249Z,16.87
2023-05-11T19:38:51.735Z,16.72
2023-05-11T19:41:19.731Z,16.65
2023-05-11T19:43:47.748Z,16.46
2023-05-11T19:46:15.291Z,16.57
2023-05-11T19:48:43.184Z,16.59
2023-05-11T19:51:10.907Z,16.51
2023-05-11T19:53:38.922Z,16.60
2023-05-11T19:56:07.971Z,16.57
2023-05-11T19:58:35.957Z,16.55
2023-05-11T20:01:03.852Z,16.45
2023-05-11T20:03:32.140Z,16.36
2023-05-11T20:05:59.762Z,16.46
2023-05-11T20:08:27.666Z,16.43
2023-05-11T20:10:55.519Z,16.52
2023-05-11T20:13:24.920Z,16.38
2023-05-11T20:15:52.433Z,16.42
2023-05-11T20:18:20.339Z,16.35
2023-05-11T20:20:48.055Z,16.24
2023-05-11T20:23:16.007Z,16.32
2023-05-11T20:25:43.508Z,16.23
2023-05-11T20:28:11.547Z,16.08
2023-05-11T20:30:40.669Z,16.00
2023-05-11T20:35:39.419Z,15.81
2023-05-11T20:38:07.297Z,15.84
2023-05-11T20:40:34.623Z,15.74
2023-05-11T20:43:03.641Z,15.79
2023-05-11T20:45:31.227Z,15.79
2023-05-11T20:48:00.764Z,15.80
2023-05-11T20:50:28.367Z,15.75
2023-05-11T20:52:56.208Z,15.75
2023-05-11T20:55:23.837Z,15.73
2023-05-11T20:57:51.806Z,15.72
2023-05-11T21:00:19.675Z,15.71
2023-05-11T21:02:47.924Z,15.68
2023-05-11T21:05:17.151Z,15.64
2023-05-11T21:07:45.444Z,15.53
2023-05-11T21:10:13.275Z,15.57
2023-05-11T21:12:41.061Z,15.50
2023-05-11T21:15:09.549Z,15.40
2023-05-11T21:17:37.549Z,15.48
2023-05-11T21:20:05.961Z,15.45
2023-05-11T21:22:35.815Z,15.32
2023-05-11T21:25:04.309Z,15.26
2023-05-11T21:27:32.200Z,15.19
2023-05-11T21:29:59.618Z,15.11
2023-05-11T21:32:27.491Z,15.10
2023-05-11T21:34:55.001Z,15.06
2023-05-11T21:37:22.700Z,14.97
2023-05-11T21:39:52.078Z,14.99
2023-05-11T21:42:20.028Z,14.95
2023-05-11T21:44:47.445Z,14.82
2023-05-11T21:47:15.471Z,14.79
2023-05-11T21:49:42.993Z,14.68
2023-05-11T21:52:10.911Z,14.64
2023-05-11T21:54:38.292Z,14.45
2023-05-11T21:57:07.916Z,14.21
2023-05-11T21:59:35.441Z,14.29
2023-05-11T22:02:03.848Z,14.16
2023-05-11T22:04:31.529Z,14.19
2023-05-11T22:07:01.047Z,14.12
2023-05-11T22:09:29.125Z,14.13
2023-05-11T22:11:56.967Z,14.16
2023-05-11T22:14:25.884Z,14.06
2023-05-11T22:16:53.797Z,14.00
2023-05-11T22:19:21.245Z,13.91
2023-05-11T22:21:49.606Z,14.12
2023-05-11T22:24:17.096Z,14.09
2023-05-11T22:26:44.930Z,14.23
2023-05-11T22:29:12.610Z,14.23
2023-05-11T22:31:43.993Z,14.24
2023-05-11T22:34:12.807Z,14.11
2023-05-11T22:36:40.644Z,13.96
2023-05-11T22:39:08.166Z,13.82
2023-05-11T22:41:36.051Z,13.80
2023-05-11T22:44:03.636Z,13.77
2023-05-11T22:46:31.523Z,13.66
2023-05-11T22:49:00.537Z,13.59
2023-05-11T22:51:28.196Z,13.65
2023-05-11T22:53:55.597Z,13.57
2023-05-11T22:56:23.579Z,13.50
2023-05-11T22:58:51.056Z,13.51
2023-05-11T23:01:19.110Z,13.39
2023-05-11T23:03:46.386Z,13.53
2023-05-11T23:06:15.727Z,13.56
2023-05-11T23:08:43.189Z,13.49
2023-05-11T23:11:10.903Z,13.55
2023-05-11T23:13:38.353Z,13.48
2023-05-11T23:16:06.177Z,13.40
2023-05-11T23:18:33.791Z,13.35
2023-05-11T23:21:01.765Z,13.32
2023-05-11T23:23:30.726Z,13.37
2023-05-11T23:25:58.750Z,13.26
2023-05-11T23:28:26.164Z,13.19
2023-05-11T23:30:53.874Z,13.34
2023-05-11T23:33:21.397Z,13.33
2023-05-11T23:35:49.199Z,13.19
2023-05-11T23:38:16.672Z,13.06
2023-05-11T23:40:46.202Z,12.85
2023-05-11T23:43:13.720Z,12.99
2023-05-11T23:45:41.709Z,12.90
2023-05-11T23:48:09.097Z,12.84
2023-05-11T23:50:37.129Z,12.81
2023-05-11T23:53:04.698Z,12.86
2023-05-11T23:55:32.454Z,12.77
2023-05-11T23:58:01.356Z,12.80
